sensor_id;sensor_type;location;lat;lon;timestamp;temperature;humidity
72128;DHT22;60000;51.030;7.024;2022-10-28T00:01:09;17.45;79.38
72128;DHT22;60000;51.030;7.024;2022-10-28T00:03:50;17.46;79.16
72128;DHT22;60000;51.030;7.024;2022-10-28T00:06:18;17.50;79.08
72128;DHT22;60000;51.030;7.024;2022-10-28T00:08:43;17.53;78.78
72128;DHT22;60000;51.030;7.024;2022-10-28T00:11:21;17.58;78.57
72128;DHT22;60000;51.030;7.024;2022-10-28T00:13:48;17.63;78.39
72128;DHT22;60000;51.030;7.024;2022-10-28T00:16:23;17.65;78.19
72128;DHT22;60000;51.030;7.024;2022-10-28T00:18:49;17.69;78.04
72128;DHT22;60000;51.030;7.024;2022-10-28T00:21:27;17.73;77.89
72128;DHT22;60000;51.030;7.024;2022-10-28T00:23:54;17.79;77.55
72128;DHT22;60000;51.030;7.024;2022-10-28T00:26:30;17.80;77.34
72128;DHT22;60000;51.030;7.024;2022-10-28T00:29:02;17.83;77.17
72128;DHT22;60000;51.030;7.024;2022-10-28T00:31:29;17.89;76.88
72128;DHT22;60000;51.030;7.024;2022-10-28T00:33:55;17.91;76.64
72128;DHT22;60000;51.030;7.024;2022-10-28T00:36:24;17.99;76.43
72128;DHT22;60000;51.030;7.024;2022-10-28T00:38:51;17.99;76.21
72128;DHT22;60000;51.030;7.024;2022-10-28T00:41:23;17.99;76.20
72128;DHT22;60000;51.030;7.024;2022-10-28T00:43:53;18.03;75.98
72128;DHT22;60000;51.030;7.024;2022-10-28T00:46:29;18.03;75.81
72128;DHT22;60000;51.030;7.024;2022-10-28T00:49:17;18.07;75.84
72128;DHT22;60000;51.030;7.024;2022-10-28T00:51:47;18.04;75.74
72128;DHT22;60000;51.030;7.024;2022-10-28T00:54:13;18.04;75.71
72128;DHT22;60000;51.030;7.024;2022-10-28T00:56:45;18.08;75.59
72128;DHT22;60000;51.030;7.024;2022-10-28T00:59:16;18.08;75.39
72128;DHT22;60000;51.030;7.024;2022-10-28T01:01:42;18.13;75.25
72128;DHT22;60000;51.030;7.024;2022-10-28T01:04:08;18.16;75.12
72128;DHT22;60000;51.030;7.024;2022-10-28T01:06:34;18.16;74.94
72128;DHT22;60000;51.030;7.024;2022-10-28T01:08:59;18.20;74.88
72128;DHT22;60000;51.030;7.024;2022-10-28T01:22:29;18.27;74.53
72128;DHT22;60000;51.030;7.024;2022-10-28T01:25:23;18.26;74.54
72128;DHT22;60000;51.030;7.024;2022-10-28T01:33:37;18.20;74.61
72128;DHT22;60000;51.030;7.024;2022-10-28T01:44:20;18.16;74.62
72128;DHT22;60000;51.030;7.024;2022-10-28T01:46:54;18.17;74.66
72128;DHT22;60000;51.030;7.024;2022-10-28T01:49:53;18.10;74.79
72128;DHT22;60000;51.030;7.024;2022-10-28T01:52:25;18.17;74.62
72128;DHT22;60000;51.030;7.024;2022-10-28T01:54:59;18.17;74.47
72128;DHT22;60000;51.030;7.024;2022-10-28T01:57:27;18.20;74.43
72128;DHT22;60000;51.030;7.024;2022-10-28T01:59:53;18.17;74.44
72128;DHT22;60000;51.030;7.024;2022-10-28T02:02:19;18.17;74.48
72128;DHT22;60000;51.030;7.024;2022-10-28T02:04:44;18.17;74.44
72128;DHT22;60000;51.030;7.024;2022-10-28T02:07:10;18.17;74.48
72128;DHT22;60000;51.030;7.024;2022-10-28T02:12:18;18.18;74.32
72128;DHT22;60000;51.030;7.024;2022-10-28T02:17:54;18.18;74.36
72128;DHT22;60000;51.030;7.024;2022-10-28T02:23:09;18.16;74.43
72128;DHT22;60000;51.030;7.024;2022-10-28T02:25:53;18.14;74.40
72128;DHT22;60000;51.030;7.024;2022-10-28T02:33:50;18.17;74.02
72128;DHT22;60000;51.030;7.024;2022-10-28T02:36:18;18.17;73.91
72128;DHT22;60000;51.030;7.024;2022-10-28T02:38:47;18.16;73.94
72128;DHT22;60000;51.030;7.024;2022-10-28T02:41:24;18.14;73.79
72128;DHT22;60000;51.030;7.024;2022-10-28T02:43:54;18.10;73.85
72128;DHT22;60000;51.030;7.024;2022-10-28T02:46:22;18.11;73.88
72128;DHT22;60000;51.030;7.024;2022-10-28T02:48:52;18.06;73.84
72128;DHT22;60000;51.030;7.024;2022-10-28T02:51:26;18.01;74.12
72128;DHT22;60000;51.030;7.024;2022-10-28T02:54:07;18.01;74.15
72128;DHT22;60000;51.030;7.024;2022-10-28T02:56:40;17.99;74.22
72128;DHT22;60000;51.030;7.024;2022-10-28T02:59:11;17.97;74.28
72128;DHT22;60000;51.030;7.024;2022-10-28T03:01:37;17.99;74.28
72128;DHT22;60000;51.030;7.024;2022-10-28T03:04:03;17.97;74.30
72128;DHT22;60000;51.030;7.024;2022-10-28T03:06:29;17.96;74.37
72128;DHT22;60000;51.030;7.024;2022-10-28T03:08:54;17.93;74.34
72128;DHT22;60000;51.030;7.024;2022-10-28T03:11:20;17.91;74.42
72128;DHT22;60000;51.030;7.024;2022-10-28T03:13:45;17.87;74.42
72128;DHT22;60000;51.030;7.024;2022-10-28T03:16:10;17.85;74.39
72128;DHT22;60000;51.030;7.024;2022-10-28T03:18:36;17.79;74.55
72128;DHT22;60000;51.030;7.024;2022-10-28T03:21:01;17.75;74.61
72128;DHT22;60000;51.030;7.024;2022-10-28T03:23:26;17.72;74.72
72128;DHT22;60000;51.030;7.024;2022-10-28T03:25:52;17.70;74.84
72128;DHT22;60000;51.030;7.024;2022-10-28T03:28:17;17.68;74.99
72128;DHT22;60000;51.030;7.024;2022-10-28T03:30:42;17.61;75.06
72128;DHT22;60000;51.030;7.024;2022-10-28T03:33:07;17.55;75.05
72128;DHT22;60000;51.030;7.024;2022-10-28T03:35:33;17.52;75.64
72128;DHT22;60000;51.030;7.024;2022-10-28T03:37:58;17.49;75.51
72128;DHT22;60000;51.030;7.024;2022-10-28T03:40:23;17.49;75.68
72128;DHT22;60000;51.030;7.024;2022-10-28T03:42:49;17.46;75.78
72128;DHT22;60000;51.030;7.024;2022-10-28T03:45:14;17.48;75.87
72128;DHT22;60000;51.030;7.024;2022-10-28T03:47:39;17.49;75.78
72128;DHT22;60000;51.030;7.024;2022-10-28T03:50:05;17.55;75.60
72128;DHT22;60000;51.030;7.024;2022-10-28T03:52:31;17.61;75.48
72128;DHT22;60000;51.030;7.024;2022-10-28T03:54:56;17.59;75.30
72128;DHT22;60000;51.030;7.024;2022-10-28T03:57:21;17.59;75.32
72128;DHT22;60000;51.030;7.024;2022-10-28T03:59:46;17.53;75.21
72128;DHT22;60000;51.030;7.024;2022-10-28T04:02:12;17.49;75.41
72128;DHT22;60000;51.030;7.024;2022-10-28T04:04:39;17.45;75.75
72128;DHT22;60000;51.030;7.024;2022-10-28T04:07:04;17.43;75.74
72128;DHT22;60000;51.030;7.024;2022-10-28T04:09:30;17.40;75.80
72128;DHT22;60000;51.030;7.024;2022-10-28T04:11:55;17.36;75.87
72128;DHT22;60000;51.030;7.024;2022-10-28T04:14:20;17.39;75.97
72128;DHT22;60000;51.030;7.024;2022-10-28T04:16:46;17.36;75.78
72128;DHT22;60000;51.030;7.024;2022-10-28T04:19:11;17.38;75.92
72128;DHT22;60000;51.030;7.024;2022-10-28T04:21:36;17.42;75.73
72128;DHT22;60000;51.030;7.024;2022-10-28T04:24:02;17.39;75.77
72128;DHT22;60000;51.030;7.024;2022-10-28T04:26:27;17.40;75.69
72128;DHT22;60000;51.030;7.024;2022-10-28T04:28:54;17.42;75.68
72128;DHT22;60000;51.030;7.024;2022-10-28T04:31:19;17.42;75.64
72128;DHT22;60000;51.030;7.024;2022-10-28T04:33:45;17.39;75.68
72128;DHT22;60000;51.030;7.024;2022-10-28T04:36:10;17.40;75.61
72128;DHT22;60000;51.030;7.024;2022-10-28T04:38:35;17.40;75.59
72128;DHT22;60000;51.030;7.024;2022-10-28T04:41:01;17.40;75.64
72128;DHT22;60000;51.030;7.024;2022-10-28T04:43:26;17.45;75.51
72128;DHT22;60000;51.030;7.024;2022-10-28T04:45:51;17.43;75.45
72128;DHT22;60000;51.030;7.024;2022-10-28T04:48:17;17.45;75.28
72128;DHT22;60000;51.030;7.024;2022-10-28T04:50:43;17.43;75.48
72128;DHT22;60000;51.030;7.024;2022-10-28T04:53:08;17.38;75.49
72128;DHT22;60000;51.030;7.024;2022-10-28T04:55:33;17.36;75.45
72128;DHT22;60000;51.030;7.024;2022-10-28T04:57:59;17.31;75.53
72128;DHT22;60000;51.030;7.024;2022-10-28T05:00:26;17.32;75.75
72128;DHT22;60000;51.030;7.024;2022-10-28T05:02:52;17.25;75.70
72128;DHT22;60000;51.030;7.024;2022-10-28T05:05:18;17.19;76.10
72128;DHT22;60000;51.030;7.024;2022-10-28T05:07:43;17.18;76.30
72128;DHT22;60000;51.030;7.024;2022-10-28T05:10:09;17.15;76.26
72128;DHT22;60000;51.030;7.024;2022-10-28T05:12:36;17.11;76.42
72128;DHT22;60000;51.030;7.024;2022-10-28T05:15:02;17.07;76.68
72128;DHT22;60000;51.030;7.024;2022-10-28T05:17:28;17.01;76.62
72128;DHT22;60000;51.030;7.024;2022-10-28T05:19:53;17.00;76.80
72128;DHT22;60000;51.030;7.024;2022-10-28T05:22:18;16.92;76.82
72128;DHT22;60000;51.030;7.024;2022-10-28T05:24:43;16.97;77.07
72128;DHT22;60000;51.030;7.024;2022-10-28T05:27:09;16.94;77.20
72128;DHT22;60000;51.030;7.024;2022-10-28T05:29:34;16.91;77.17
72128;DHT22;60000;51.030;7.024;2022-10-28T05:31:59;16.87;77.25
72128;DHT22;60000;51.030;7.024;2022-10-28T05:34:25;16.85;77.56
72128;DHT22;60000;51.030;7.024;2022-10-28T05:36:50;16.87;77.61
72128;DHT22;60000;51.030;7.024;2022-10-28T05:39:16;16.85;77.78
72128;DHT22;60000;51.030;7.024;2022-10-28T05:41:41;16.90;77.88
72128;DHT22;60000;51.030;7.024;2022-10-28T05:44:07;16.91;77.59
72128;DHT22;60000;51.030;7.024;2022-10-28T05:46:32;16.92;77.31
72128;DHT22;60000;51.030;7.024;2022-10-28T05:48:57;16.84;77.60
72128;DHT22;60000;51.030;7.024;2022-10-28T05:51:23;16.87;77.56
72128;DHT22;60000;51.030;7.024;2022-10-28T05:53:48;16.84;77.55
72128;DHT22;60000;51.030;7.024;2022-10-28T05:56:16;16.81;77.69
72128;DHT22;60000;51.030;7.024;2022-10-28T05:58:41;16.85;77.69
72128;DHT22;60000;51.030;7.024;2022-10-28T06:01:07;16.85;77.62
72128;DHT22;60000;51.030;7.024;2022-10-28T06:03:32;16.81;77.20
72128;DHT22;60000;51.030;7.024;2022-10-28T06:05:57;16.71;77.33
72128;DHT22;60000;51.030;7.024;2022-10-28T06:08:23;16.66;77.71
72128;DHT22;60000;51.030;7.024;2022-10-28T06:10:49;16.60;78.25
72128;DHT22;60000;51.030;7.024;2022-10-28T06:13:15;16.61;78.52
72128;DHT22;60000;51.030;7.024;2022-10-28T06:15:40;16.59;78.51
72128;DHT22;60000;51.030;7.024;2022-10-28T06:18:06;16.61;78.52
72128;DHT22;60000;51.030;7.024;2022-10-28T06:20:31;16.64;78.66
72128;DHT22;60000;51.030;7.024;2022-10-28T06:22:56;16.67;78.59
72128;DHT22;60000;51.030;7.024;2022-10-28T06:25:23;16.71;78.49
72128;DHT22;60000;51.030;7.024;2022-10-28T06:27:58;16.76;78.30
72128;DHT22;60000;51.030;7.024;2022-10-28T06:30:27;16.77;78.16
72128;DHT22;60000;51.030;7.024;2022-10-28T06:32:55;16.81;78.12
72128;DHT22;60000;51.030;7.024;2022-10-28T06:35:20;16.79;77.98
72128;DHT22;60000;51.030;7.024;2022-10-28T06:37:45;16.76;78.03
72128;DHT22;60000;51.030;7.024;2022-10-28T06:40:11;16.76;78.15
72128;DHT22;60000;51.030;7.024;2022-10-28T06:42:36;16.71;78.12
72128;DHT22;60000;51.030;7.024;2022-10-28T06:45:01;16.67;78.18
72128;DHT22;60000;51.030;7.024;2022-10-28T06:47:27;16.64;78.32
72128;DHT22;60000;51.030;7.024;2022-10-28T06:49:52;16.59;78.77
72128;DHT22;60000;51.030;7.024;2022-10-28T06:52:18;16.60;78.77
72128;DHT22;60000;51.030;7.024;2022-10-28T06:54:43;16.63;78.98
72128;DHT22;60000;51.030;7.024;2022-10-28T06:57:09;16.69;78.95
72128;DHT22;60000;51.030;7.024;2022-10-28T06:59:35;16.76;78.73
72128;DHT22;60000;51.030;7.024;2022-10-28T07:02:00;16.79;78.69
72128;DHT22;60000;51.030;7.024;2022-10-28T07:04:26;16.84;78.56
72128;DHT22;60000;51.030;7.024;2022-10-28T07:06:55;16.90;78.44
72128;DHT22;60000;51.030;7.024;2022-10-28T07:09:20;16.94;78.21
72128;DHT22;60000;51.030;7.024;2022-10-28T07:11:49;17.00;78.14
72128;DHT22;60000;51.030;7.024;2022-10-28T07:14:14;17.06;77.85
72128;DHT22;60000;51.030;7.024;2022-10-28T07:16:40;17.11;77.61
72128;DHT22;60000;51.030;7.024;2022-10-28T07:19:06;17.15;77.37
72128;DHT22;60000;51.030;7.024;2022-10-28T07:21:32;17.22;77.22
72128;DHT22;60000;51.030;7.024;2022-10-28T07:23:58;17.29;76.97
72128;DHT22;60000;51.030;7.024;2022-10-28T07:26:23;17.42;76.39
72128;DHT22;60000;51.030;7.024;2022-10-28T07:28:49;17.53;76.07
72128;DHT22;60000;51.030;7.024;2022-10-28T07:31:14;17.61;75.80
72128;DHT22;60000;51.030;7.024;2022-10-28T07:33:40;17.68;75.68
72128;DHT22;60000;51.030;7.024;2022-10-28T07:36:06;17.75;75.58
72128;DHT22;60000;51.030;7.024;2022-10-28T07:38:31;17.77;75.48
72128;DHT22;60000;51.030;7.024;2022-10-28T07:40:57;17.82;75.46
72128;DHT22;60000;51.030;7.024;2022-10-28T07:43:22;17.93;75.48
72128;DHT22;60000;51.030;7.024;2022-10-28T07:45:54;18.10;74.97
72128;DHT22;60000;51.030;7.024;2022-10-28T07:48:20;18.27;75.12
72128;DHT22;60000;51.030;7.024;2022-10-28T07:50:45;18.44;74.99
72128;DHT22;60000;51.030;7.024;2022-10-28T07:53:10;18.58;73.55
72128;DHT22;60000;51.030;7.024;2022-10-28T07:55:36;18.64;72.92
72128;DHT22;60000;51.030;7.024;2022-10-28T07:58:01;18.79;72.96
72128;DHT22;60000;51.030;7.024;2022-10-28T08:00:26;18.82;72.18
72128;DHT22;60000;51.030;7.024;2022-10-28T08:02:51;18.91;72.03
72128;DHT22;60000;51.030;7.024;2022-10-28T08:05:17;18.95;71.79
72128;DHT22;60000;51.030;7.024;2022-10-28T08:07:42;18.98;71.48
72128;DHT22;60000;51.030;7.024;2022-10-28T08:10:08;19.05;71.38
72128;DHT22;60000;51.030;7.024;2022-10-28T08:12:33;19.09;71.15
72128;DHT22;60000;51.030;7.024;2022-10-28T08:14:59;19.20;71.45
72128;DHT22;60000;51.030;7.024;2022-10-28T08:17:24;19.34;71.64
72128;DHT22;60000;51.030;7.024;2022-10-28T08:19:49;19.58;71.78
72128;DHT22;60000;51.030;7.024;2022-10-28T08:22:14;19.68;69.97
72128;DHT22;60000;51.030;7.024;2022-10-28T08:24:40;19.92;70.04
72128;DHT22;60000;51.030;7.024;2022-10-28T08:27:05;20.02;68.98
72128;DHT22;60000;51.030;7.024;2022-10-28T08:29:30;20.09;67.94
72128;DHT22;60000;51.030;7.024;2022-10-28T08:31:56;20.12;68.13
72128;DHT22;60000;51.030;7.024;2022-10-28T08:34:22;20.11;67.73
72128;DHT22;60000;51.030;7.024;2022-10-28T08:36:47;20.16;67.89
72128;DHT22;60000;51.030;7.024;2022-10-28T08:39:13;20.19;67.26
72128;DHT22;60000;51.030;7.024;2022-10-28T08:50:22;20.02;67.56
72128;DHT22;60000;51.030;7.024;2022-10-28T08:52:57;20.04;67.49
72128;DHT22;60000;51.030;7.024;2022-10-28T08:55:38;20.04;67.49
72128;DHT22;60000;51.030;7.024;2022-10-28T08:58:19;20.09;67.80
72128;DHT22;60000;51.030;7.024;2022-10-28T09:00:51;20.08;67.49
72128;DHT22;60000;51.030;7.024;2022-10-28T09:03:21;20.18;67.57
72128;DHT22;60000;51.030;7.024;2022-10-28T09:05:48;20.39;67.45
72128;DHT22;60000;51.030;7.024;2022-10-28T09:08:25;20.66;66.93
72128;DHT22;60000;51.030;7.024;2022-10-28T09:11:28;20.94;66.94
72128;DHT22;60000;51.030;7.024;2022-10-28T09:14:28;21.22;64.52
72128;DHT22;60000;51.030;7.024;2022-10-28T09:25:01;22.07;62.23
72128;DHT22;60000;51.030;7.024;2022-10-28T09:33:24;22.43;60.04
72128;DHT22;60000;51.030;7.024;2022-10-28T09:35:55;22.44;59.67
72128;DHT22;60000;51.030;7.024;2022-10-28T09:38:26;22.55;59.96
72128;DHT22;60000;51.030;7.024;2022-10-28T09:40:59;22.58;59.18
72128;DHT22;60000;51.030;7.024;2022-10-28T09:43:38;22.54;59.28
72128;DHT22;60000;51.030;7.024;2022-10-28T09:46:13;22.62;59.46
72128;DHT22;60000;51.030;7.024;2022-10-28T09:48:47;22.71;58.79
72128;DHT22;60000;51.030;7.024;2022-10-28T09:53:55;22.72;58.79
72128;DHT22;60000;51.030;7.024;2022-10-28T09:56:21;22.64;59.43
72128;DHT22;60000;51.030;7.024;2022-10-28T09:58:46;22.64;59.19
72128;DHT22;60000;51.030;7.024;2022-10-28T10:01:13;22.69;59.52
72128;DHT22;60000;51.030;7.024;2022-10-28T10:03:39;22.78;59.11
72128;DHT22;60000;51.030;7.024;2022-10-28T10:06:26;22.81;58.54
72128;DHT22;60000;51.030;7.024;2022-10-28T10:08:54;22.91;58.56
72128;DHT22;60000;51.030;7.024;2022-10-28T10:11:50;22.92;58.35
72128;DHT22;60000;51.030;7.024;2022-10-28T10:14:27;22.96;58.11
72128;DHT22;60000;51.030;7.024;2022-10-28T10:17:04;23.02;58.28
72128;DHT22;60000;51.030;7.024;2022-10-28T10:20:08;23.05;58.37
72128;DHT22;60000;51.030;7.024;2022-10-28T10:22:42;23.19;58.22
72128;DHT22;60000;51.030;7.024;2022-10-28T10:27:42;23.23;57.71
72128;DHT22;60000;51.030;7.024;2022-10-28T10:30:18;23.23;57.52
72128;DHT22;60000;51.030;7.024;2022-10-28T10:32:45;23.23;57.50
72128;DHT22;60000;51.030;7.024;2022-10-28T10:37:41;23.24;58.27
72128;DHT22;60000;51.030;7.024;2022-10-28T10:40:32;23.26;57.73
72128;DHT22;60000;51.030;7.024;2022-10-28T10:45:50;23.33;57.47
72128;DHT22;60000;51.030;7.024;2022-10-28T10:48:15;23.37;58.05
72128;DHT22;60000;51.030;7.024;2022-10-28T10:50:44;23.40;57.73
72128;DHT22;60000;51.030;7.024;2022-10-28T10:53:25;23.39;58.12
72128;DHT22;60000;51.030;7.024;2022-10-28T10:56:00;23.45;58.00
72128;DHT22;60000;51.030;7.024;2022-10-28T10:58:30;23.46;58.21
72128;DHT22;60000;51.030;7.024;2022-10-28T11:00:59;23.49;58.12
72128;DHT22;60000;51.030;7.024;2022-10-28T11:03:29;23.49;58.12
72128;DHT22;60000;51.030;7.024;2022-10-28T11:05:57;23.37;58.44
72128;DHT22;60000;51.030;7.024;2022-10-28T11:08:37;23.33;58.91
72128;DHT22;60000;51.030;7.024;2022-10-28T11:11:20;23.39;58.85
72128;DHT22;60000;51.030;7.024;2022-10-28T11:13:47;23.53;59.45
72128;DHT22;60000;51.030;7.024;2022-10-28T11:16:21;23.64;58.70
72128;DHT22;60000;51.030;7.024;2022-10-28T11:18:50;23.74;58.28
72128;DHT22;60000;51.030;7.024;2022-10-28T11:24:24;23.93;56.76
72128;DHT22;60000;51.030;7.024;2022-10-28T11:29:34;24.01;56.63
72128;DHT22;60000;51.030;7.024;2022-10-28T11:35:02;24.12;56.40
72128;DHT22;60000;51.030;7.024;2022-10-28T11:45:32;24.18;56.11
72128;DHT22;60000;51.030;7.024;2022-10-28T11:48:31;24.22;56.01
72128;DHT22;60000;51.030;7.024;2022-10-28T11:51:10;24.29;55.87
72128;DHT22;60000;51.030;7.024;2022-10-28T11:53:49;24.30;55.57
72128;DHT22;60000;51.030;7.024;2022-10-28T11:56:34;24.32;55.29
72128;DHT22;60000;51.030;7.024;2022-10-28T12:04:58;24.40;55.55
72128;DHT22;60000;51.030;7.024;2022-10-28T12:15:48;24.51;54.98
72128;DHT22;60000;51.030;7.024;2022-10-28T12:23:45;24.62;54.88
72128;DHT22;60000;51.030;7.024;2022-10-28T12:26:13;24.63;54.43
72128;DHT22;60000;51.030;7.024;2022-10-28T12:31:14;24.67;53.51
72128;DHT22;60000;51.030;7.024;2022-10-28T12:33:44;24.67;53.21
72128;DHT22;60000;51.030;7.024;2022-10-28T12:38:45;24.60;53.79
72128;DHT22;60000;51.030;7.024;2022-10-28T12:41:20;24.56;53.57
72128;DHT22;60000;51.030;7.024;2022-10-28T12:43:48;24.56;53.69
72128;DHT22;60000;51.030;7.024;2022-10-28T12:49:11;24.55;54.08
72128;DHT22;60000;51.030;7.024;2022-10-28T12:51:40;24.53;54.05
72128;DHT22;60000;51.030;7.024;2022-10-28T12:54:21;24.60;54.68
72128;DHT22;60000;51.030;7.024;2022-10-28T12:56:53;24.63;54.27
72128;DHT22;60000;51.030;7.024;2022-10-28T12:59:28;24.66;54.26
72128;DHT22;60000;51.030;7.024;2022-10-28T13:01:55;24.69;52.98
72128;DHT22;60000;51.030;7.024;2022-10-28T13:04:21;24.70;53.45
72128;DHT22;60000;51.030;7.024;2022-10-28T13:09:51;24.69;53.56
72128;DHT22;60000;51.030;7.024;2022-10-28T13:17:30;24.59;53.39
72128;DHT22;60000;51.030;7.024;2022-10-28T13:22:52;24.51;53.53
72128;DHT22;60000;51.030;7.024;2022-10-28T13:25:40;24.48;53.86
72128;DHT22;60000;51.030;7.024;2022-10-28T13:28:14;24.46;53.82
72128;DHT22;60000;51.030;7.024;2022-10-28T13:31:19;24.46;54.17
72128;DHT22;60000;51.030;7.024;2022-10-28T13:33:49;24.51;54.31
72128;DHT22;60000;51.030;7.024;2022-10-28T13:36:16;24.51;54.53
72128;DHT22;60000;51.030;7.024;2022-10-28T13:38:48;24.55;53.76
72128;DHT22;60000;51.030;7.024;2022-10-28T13:41:30;24.55;54.49
72128;DHT22;60000;51.030;7.024;2022-10-28T13:43:58;24.55;54.57
72128;DHT22;60000;51.030;7.024;2022-10-28T13:52:25;24.46;54.57
72128;DHT22;60000;51.030;7.024;2022-10-28T13:54:53;24.43;54.74
72128;DHT22;60000;51.030;7.024;2022-10-28T13:59:55;24.40;54.25
72128;DHT22;60000;51.030;7.024;2022-10-28T14:02:34;24.40;54.31
72128;DHT22;60000;51.030;7.024;2022-10-28T14:05:09;24.36;54.42
72128;DHT22;60000;51.030;7.024;2022-10-28T14:07:37;24.33;54.71
72128;DHT22;60000;51.030;7.024;2022-10-28T14:10:35;24.28;54.95
72128;DHT22;60000;51.030;7.024;2022-10-28T14:13:19;24.21;54.88
72128;DHT22;60000;51.030;7.024;2022-10-28T14:15:46;24.15;55.29
72128;DHT22;60000;51.030;7.024;2022-10-28T14:50:43;23.50;55.21
72128;DHT22;60000;51.030;7.024;2022-10-28T14:53:32;23.43;55.45
72128;DHT22;60000;51.030;7.024;2022-10-28T14:56:19;23.34;55.78
72128;DHT22;60000;51.030;7.024;2022-10-28T14:58:45;23.26;56.46
72128;DHT22;60000;51.030;7.024;2022-10-28T15:03:37;23.13;56.76
72128;DHT22;60000;51.030;7.024;2022-10-28T15:06:27;23.10;57.58
72128;DHT22;60000;51.030;7.024;2022-10-28T15:08:55;23.08;58.41
72128;DHT22;60000;51.030;7.024;2022-10-28T15:11:21;22.98;59.01
72128;DHT22;60000;51.030;7.024;2022-10-28T15:13:52;22.89;59.57
72128;DHT22;60000;51.030;7.024;2022-10-28T15:16:20;22.76;60.16
72128;DHT22;60000;51.030;7.024;2022-10-28T15:18:46;22.65;60.76
72128;DHT22;60000;51.030;7.024;2022-10-28T15:21:15;22.57;60.70
72128;DHT22;60000;51.030;7.024;2022-10-28T15:23:41;22.48;60.72
72128;DHT22;60000;51.030;7.024;2022-10-28T15:26:12;22.40;61.11
72128;DHT22;60000;51.030;7.024;2022-10-28T15:28:38;22.34;61.14
72128;DHT22;60000;51.030;7.024;2022-10-28T15:31:04;22.25;61.19
72128;DHT22;60000;51.030;7.024;2022-10-28T15:33:31;22.20;61.39
72128;DHT22;60000;51.030;7.024;2022-10-28T15:36:17;22.13;61.55
72128;DHT22;60000;51.030;7.024;2022-10-28T15:41:41;21.94;62.33
72128;DHT22;60000;51.030;7.024;2022-10-28T15:46:51;21.75;63.39
72128;DHT22;60000;51.030;7.024;2022-10-28T15:49:39;21.62;63.76
72128;DHT22;60000;51.030;7.024;2022-10-28T15:54:40;21.41;63.82
72128;DHT22;60000;51.030;7.024;2022-10-28T15:57:20;21.34;64.34
72128;DHT22;60000;51.030;7.024;2022-10-28T15:59:46;21.30;64.28
72128;DHT22;60000;51.030;7.024;2022-10-28T16:02:38;21.21;64.41
72128;DHT22;60000;51.030;7.024;2022-10-28T16:07:57;21.04;64.49
72128;DHT22;60000;51.030;7.024;2022-10-28T16:10:22;21.00;64.46
72128;DHT22;60000;51.030;7.024;2022-10-28T16:12:48;20.94;64.45
72128;DHT22;60000;51.030;7.024;2022-10-28T16:15:14;20.84;64.28
72128;DHT22;60000;51.030;7.024;2022-10-28T16:17:41;20.79;64.27
72128;DHT22;60000;51.030;7.024;2022-10-28T16:20:12;20.73;64.48
72128;DHT22;60000;51.030;7.024;2022-10-28T16:22:39;20.66;64.60
72128;DHT22;60000;51.030;7.024;2022-10-28T16:25:11;20.57;65.12
72128;DHT22;60000;51.030;7.024;2022-10-28T16:27:37;20.57;65.13
72128;DHT22;60000;51.030;7.024;2022-10-28T16:30:02;20.53;65.42
72128;DHT22;60000;51.030;7.024;2022-10-28T16:32:33;20.53;65.89
72128;DHT22;60000;51.030;7.024;2022-10-28T16:35:00;20.43;66.01
72128;DHT22;60000;51.030;7.024;2022-10-28T16:37:27;20.35;66.59
72128;DHT22;60000;51.030;7.024;2022-10-28T16:39:53;20.26;67.00
72128;DHT22;60000;51.030;7.024;2022-10-28T16:42:20;20.19;67.63
72128;DHT22;60000;51.030;7.024;2022-10-28T16:44:46;20.16;67.79
72128;DHT22;60000;51.030;7.024;2022-10-28T16:47:13;20.15;68.14
72128;DHT22;60000;51.030;7.024;2022-10-28T16:49:40;20.08;68.45
72128;DHT22;60000;51.030;7.024;2022-10-28T16:52:10;20.01;68.64
72128;DHT22;60000;51.030;7.024;2022-10-28T16:54:37;19.99;68.83
72128;DHT22;60000;51.030;7.024;2022-10-28T16:57:02;19.95;68.82
72128;DHT22;60000;51.030;7.024;2022-10-28T16:59:27;19.94;68.88
72128;DHT22;60000;51.030;7.024;2022-10-28T17:01:53;19.85;68.91
72128;DHT22;60000;51.030;7.024;2022-10-28T17:04:18;19.77;69.32
72128;DHT22;60000;51.030;7.024;2022-10-28T17:06:43;19.70;69.71
72128;DHT22;60000;51.030;7.024;2022-10-28T17:09:09;19.63;70.11
72128;DHT22;60000;51.030;7.024;2022-10-28T17:11:34;19.57;70.49
72128;DHT22;60000;51.030;7.024;2022-10-28T17:13:59;19.53;70.98
72128;DHT22;60000;51.030;7.024;2022-10-28T17:16:24;19.50;71.14
72128;DHT22;60000;51.030;7.024;2022-10-28T17:18:50;19.47;71.04
72128;DHT22;60000;51.030;7.024;2022-10-28T17:21:15;19.46;71.13
72128;DHT22;60000;51.030;7.024;2022-10-28T17:23:40;19.40;71.27
72128;DHT22;60000;51.030;7.024;2022-10-28T17:26:06;19.36;71.24
72128;DHT22;60000;51.030;7.024;2022-10-28T17:28:31;19.33;71.40
72128;DHT22;60000;51.030;7.024;2022-10-28T17:31:04;19.33;71.54
72128;DHT22;60000;51.030;7.024;2022-10-28T17:33:30;19.24;71.64
72128;DHT22;60000;51.030;7.024;2022-10-28T17:35:59;19.22;72.02
72128;DHT22;60000;51.030;7.024;2022-10-28T17:38:25;19.17;72.11
72128;DHT22;60000;51.030;7.024;2022-10-28T17:40:54;19.15;72.12
72128;DHT22;60000;51.030;7.024;2022-10-28T17:43:20;19.16;72.19
72128;DHT22;60000;51.030;7.024;2022-10-28T17:45:45;19.15;72.26
72128;DHT22;60000;51.030;7.024;2022-10-28T17:48:11;19.13;72.32
72128;DHT22;60000;51.030;7.024;2022-10-28T17:50:36;19.17;72.14
72128;DHT22;60000;51.030;7.024;2022-10-28T17:53:01;19.17;72.09
72128;DHT22;60000;51.030;7.024;2022-10-28T17:55:26;19.17;72.02
72128;DHT22;60000;51.030;7.024;2022-10-28T17:57:52;19.20;71.94
72128;DHT22;60000;51.030;7.024;2022-10-28T18:00:17;19.23;71.72
72128;DHT22;60000;51.030;7.024;2022-10-28T18:02:42;19.19;71.60
72128;DHT22;60000;51.030;7.024;2022-10-28T18:05:08;19.10;71.55
72128;DHT22;60000;51.030;7.024;2022-10-28T18:07:33;19.03;71.82
72128;DHT22;60000;51.030;7.024;2022-10-28T18:09:58;18.96;72.25
72128;DHT22;60000;51.030;7.024;2022-10-28T18:12:24;18.94;72.26
72128;DHT22;60000;51.030;7.024;2022-10-28T18:14:49;18.88;72.41
72128;DHT22;60000;51.030;7.024;2022-10-28T18:17:14;18.82;72.78
72128;DHT22;60000;51.030;7.024;2022-10-28T18:19:41;18.76;72.85
72128;DHT22;60000;51.030;7.024;2022-10-28T18:22:06;18.69;72.74
72128;DHT22;60000;51.030;7.024;2022-10-28T18:24:31;18.62;73.08
72128;DHT22;60000;51.030;7.024;2022-10-28T18:26:57;18.48;73.14
72128;DHT22;60000;51.030;7.024;2022-10-28T18:29:22;18.44;73.43
72128;DHT22;60000;51.030;7.024;2022-10-28T18:31:48;18.34;73.71
72128;DHT22;60000;51.030;7.024;2022-10-28T18:34:13;18.26;74.04
72128;DHT22;60000;51.030;7.024;2022-10-28T18:36:38;18.16;74.10
72128;DHT22;60000;51.030;7.024;2022-10-28T18:39:05;18.07;74.97
72128;DHT22;60000;51.030;7.024;2022-10-28T18:41:33;18.04;75.86
72128;DHT22;60000;51.030;7.024;2022-10-28T18:44:00;18.06;76.09